sensor_id;sensor_type;location;lat;lon;timestamp;P1;durP1;ratioP1;P2;durP2;ratioP2
41661;SDS011;27351;45.992;12.666;2023-03-14T00:01:23;14.02;;;9.32;;
41661;SDS011;27351;45.992;12.666;2023-03-14T00:03:49;14.82;;;9.05;;
41661;SDS011;27351;45.992;12.666;2023-03-14T00:06:15;17.40;;;9.43;;
41661;SDS011;27351;45.992;12.666;2023-03-14T00:08:42;15.00;;;9.00;;
41661;SDS011;27351;45.992;12.666;2023-03-14T00:11:09;14.75;;;8.80;;
41661;SDS011;27351;45.992;12.666;2023-03-14T00:13:35;17.77;;;9.60;;
41661;SDS011;27351;45.992;12.666;2023-03-14T00:16:04;14.83;;;9.13;;
41661;SDS011;27351;45.992;12.666;2023-03-14T00:18:30;14.30;;;9.18;;
41661;SDS011;27351;45.992;12.666;2023-03-14T00:20:59;17.23;;;9.53;;
41661;SDS011;27351;45.992;12.666;2023-03-14T00:23:24;14.17;;;9.50;;
41661;SDS011;27351;45.992;12.666;2023-03-14T00:25:50;12.60;;;8.97;;
41661;SDS011;27351;45.992;12.666;2023-03-14T00:28:16;12.07;;;8.47;;
41661;SDS011;27351;45.992;12.666;2023-03-14T00:30:41;14.57;;;9.67;;
41661;SDS011;27351;45.992;12.666;2023-03-14T00:33:08;15.82;;;8.93;;
41661;SDS011;27351;45.992;12.666;2023-03-14T00:35:33;16.27;;;9.53;;
41661;SDS011;27351;45.992;12.666;2023-03-14T00:37:59;17.10;;;9.93;;
41661;SDS011;27351;45.992;12.666;2023-03-14T00:40:25;18.40;;;10.00;;
41661;SDS011;27351;45.992;12.666;2023-03-14T00:42:50;14.50;;;9.77;;
41661;SDS011;27351;45.992;12.666;2023-03-14T00:45:16;14.83;;;9.27;;
41661;SDS011;27351;45.992;12.666;2023-03-14T00:47:41;15.63;;;10.33;;
41661;SDS011;27351;45.992;12.666;2023-03-14T00:50:11;15.10;;;9.73;;
41661;SDS011;27351;45.992;12.666;2023-03-14T00:52:37;17.20;;;10.13;;
41661;SDS011;27351;45.992;12.666;2023-03-14T00:55:04;17.85;;;10.40;;
41661;SDS011;27351;45.992;12.666;2023-03-14T00:57:30;18.90;;;10.80;;
41661;SDS011;27351;45.992;12.666;2023-03-14T00:59:55;16.98;;;10.20;;
41661;SDS011;27351;45.992;12.666;2023-03-14T01:02:21;17.35;;;10.43;;
41661;SDS011;27351;45.992;12.666;2023-03-14T01:04:48;13.45;;;9.20;;
41661;SDS011;27351;45.992;12.666;2023-03-14T01:07:14;16.63;;;9.80;;
41661;SDS011;27351;45.992;12.666;2023-03-14T01:09:40;16.13;;;9.10;;
41661;SDS011;27351;45.992;12.666;2023-03-14T01:12:07;16.63;;;9.13;;
41661;SDS011;27351;45.992;12.666;2023-03-14T01:14:33;16.63;;;9.40;;
41661;SDS011;27351;45.992;12.666;2023-03-14T01:16:58;15.90;;;9.13;;
41661;SDS011;27351;45.992;12.666;2023-03-14T01:19:27;18.15;;;9.30;;
41661;SDS011;27351;45.992;12.666;2023-03-14T01:21:53;16.85;;;9.23;;
41661;SDS011;27351;45.992;12.666;2023-03-14T01:24:19;14.57;;;8.93;;
41661;SDS011;27351;45.992;12.666;2023-03-14T01:26:45;15.30;;;9.30;;
41661;SDS011;27351;45.992;12.666;2023-03-14T01:29:11;16.00;;;8.77;;
41661;SDS011;27351;45.992;12.666;2023-03-14T01:31:38;14.05;;;9.07;;
41661;SDS011;27351;45.992;12.666;2023-03-14T01:34:03;13.00;;;8.55;;
41661;SDS011;27351;45.992;12.666;2023-03-14T01:36:29;15.60;;;9.30;;
41661;SDS011;27351;45.992;12.666;2023-03-14T01:38:55;16.17;;;8.40;;
41661;SDS011;27351;45.992;12.666;2023-03-14T01:41:22;14.50;;;8.68;;
41661;SDS011;27351;45.992;12.666;2023-03-14T01:43:50;14.38;;;9.18;;
41661;SDS011;27351;45.992;12.666;2023-03-14T01:46:20;14.70;;;8.75;;
41661;SDS011;27351;45.992;12.666;2023-03-14T01:51:21;18.43;;;10.50;;
41661;SDS011;27351;45.992;12.666;2023-03-14T01:53:47;16.95;;;10.20;;
41661;SDS011;27351;45.992;12.666;2023-03-14T01:56:15;17.45;;;10.18;;
41661;SDS011;27351;45.992;12.666;2023-03-14T01:58:41;15.40;;;9.93;;
41661;SDS011;27351;45.992;12.666;2023-03-14T02:01:08;15.50;;;10.30;;
41661;SDS011;27351;45.992;12.666;2023-03-14T02:03:36;16.83;;;10.47;;
41661;SDS011;27351;45.992;12.666;2023-03-14T02:06:04;19.40;;;11.40;;
41661;SDS011;27351;45.992;12.666;2023-03-14T02:08:31;20.65;;;11.18;;
41661;SDS011;27351;45.992;12.666;2023-03-14T02:11:02;18.63;;;11.47;;
41661;SDS011;27351;45.992;12.666;2023-03-14T02:13:52;18.70;;;12.18;;
41661;SDS011;27351;45.992;12.666;2023-03-14T02:16:50;18.98;;;12.57;;
41661;SDS011;27351;45.992;12.666;2023-03-14T02:22:31;19.92;;;11.40;;
41661;SDS011;27351;45.992;12.666;2023-03-14T02:27:31;16.30;;;9.98;;
41661;SDS011;27351;45.992;12.666;2023-03-14T02:30:01;18.63;;;10.85;;
41661;SDS011;27351;45.992;12.666;2023-03-14T02:32:29;15.88;;;10.77;;
41661;SDS011;27351;45.992;12.666;2023-03-14T02:34:56;15.55;;;9.80;;
41661;SDS011;27351;45.992;12.666;2023-03-14T02:37:23;14.85;;;9.85;;
41661;SDS011;27351;45.992;12.666;2023-03-14T02:39:50;15.68;;;9.82;;
41661;SDS011;27351;45.992;12.666;2023-03-14T02:42:17;15.88;;;9.73;;
41661;SDS011;27351;45.992;12.666;2023-03-14T02:44:50;14.13;;;9.07;;
41661;SDS011;27351;45.992;12.666;2023-03-14T02:47:16;14.63;;;8.50;;
41661;SDS011;27351;45.992;12.666;2023-03-14T02:49:44;13.68;;;8.27;;
41661;SDS011;27351;45.992;12.666;2023-03-14T02:52:10;13.52;;;8.70;;
41661;SDS011;27351;45.992;12.666;2023-03-14T02:54:35;13.82;;;7.75;;
41661;SDS011;27351;45.992;12.666;2023-03-14T02:57:02;14.65;;;8.50;;
41661;SDS011;27351;45.992;12.666;2023-03-14T02:59:28;12.35;;;8.10;;
41661;SDS011;27351;45.992;12.666;2023-03-14T03:01:56;13.35;;;8.55;;
41661;SDS011;27351;45.992;12.666;2023-03-14T03:04:25;12.93;;;8.57;;
41661;SDS011;27351;45.992;12.666;2023-03-14T03:06:50;15.43;;;9.23;;
41661;SDS011;27351;45.992;12.666;2023-03-14T03:09:16;14.13;;;8.33;;
41661;SDS011;27351;45.992;12.666;2023-03-14T03:11:41;14.70;;;8.47;;
41661;SDS011;27351;45.992;12.666;2023-03-14T03:14:10;13.40;;;8.60;;
41661;SDS011;27351;45.992;12.666;2023-03-14T03:16:35;14.17;;;8.67;;
41661;SDS011;27351;45.992;12.666;2023-03-14T03:19:01;14.03;;;9.00;;
41661;SDS011;27351;45.992;12.666;2023-03-14T03:21:26;15.03;;;8.80;;
41661;SDS011;27351;45.992;12.666;2023-03-14T03:23:52;15.73;;;10.00;;
41661;SDS011;27351;45.992;12.666;2023-03-14T03:26:17;14.05;;;9.23;;
41661;SDS011;27351;45.992;12.666;2023-03-14T03:28:43;14.32;;;9.70;;
41661;SDS011;27351;45.992;12.666;2023-03-14T03:31:10;14.13;;;9.13;;
41661;SDS011;27351;45.992;12.666;2023-03-14T03:33:37;13.77;;;9.43;;
41661;SDS011;27351;45.992;12.666;2023-03-14T03:36:03;14.10;;;8.52;;
41661;SDS011;27351;45.992;12.666;2023-03-14T03:38:33;14.50;;;9.18;;
41661;SDS011;27351;45.992;12.666;2023-03-14T03:41:06;12.60;;;8.40;;
41661;SDS011;27351;45.992;12.666;2023-03-14T03:43:32;13.25;;;8.85;;
41661;SDS011;27351;45.992;12.666;2023-03-14T03:46:02;12.97;;;8.07;;
41661;SDS011;27351;45.992;12.666;2023-03-14T03:48:28;16.13;;;8.82;;
41661;SDS011;27351;45.992;12.666;2023-03-14T03:50:54;13.15;;;8.50;;
41661;SDS011;27351;45.992;12.666;2023-03-14T03:53:21;13.75;;;7.88;;
41661;SDS011;27351;45.992;12.666;2023-03-14T03:55:47;13.13;;;7.60;;
41661;SDS011;27351;45.992;12.666;2023-03-14T03:58:13;12.50;;;8.17;;
41661;SDS011;27351;45.992;12.666;2023-03-14T04:00:38;14.67;;;8.23;;
41661;SDS011;27351;45.992;12.666;2023-03-14T04:03:04;13.30;;;8.13;;
41661;SDS011;27351;45.992;12.666;2023-03-14T04:05:30;12.70;;;7.45;;
41661;SDS011;27351;45.992;12.666;2023-03-14T04:08:03;12.90;;;7.40;;
41661;SDS011;27351;45.992;12.666;2023-03-14T04:10:29;12.38;;;8.07;;
41661;SDS011;27351;45.992;12.666;2023-03-14T04:13:04;11.27;;;7.32;;
41661;SDS011;27351;45.992;12.666;2023-03-14T04:15:31;12.40;;;7.90;;
41661;SDS011;27351;45.992;12.666;2023-03-14T04:18:01;12.15;;;7.55;;
41661;SDS011;27351;45.992;12.666;2023-03-14T04:20:26;12.27;;;8.02;;
41661;SDS011;27351;45.992;12.666;2023-03-14T04:22:53;12.05;;;7.60;;
41661;SDS011;27351;45.992;12.666;2023-03-14T04:25:19;12.73;;;6.93;;
41661;SDS011;27351;45.992;12.666;2023-03-14T04:27:50;12.98;;;7.43;;
41661;SDS011;27351;45.992;12.666;2023-03-14T04:30:21;11.98;;;7.00;;
41661;SDS011;27351;45.992;12.666;2023-03-14T04:32:57;11.43;;;7.10;;
41661;SDS011;27351;45.992;12.666;2023-03-14T04:35:24;12.40;;;7.23;;
41661;SDS011;27351;45.992;12.666;2023-03-14T04:37:54;11.90;;;6.87;;
41661;SDS011;27351;45.992;12.666;2023-03-14T04:40:21;11.95;;;7.60;;
41661;SDS011;27351;45.992;12.666;2023-03-14T04:42:49;13.15;;;6.93;;
41661;SDS011;27351;45.992;12.666;2023-03-14T04:45:15;12.93;;;7.17;;
41661;SDS011;27351;45.992;12.666;2023-03-14T04:47:42;12.48;;;6.90;;
41661;SDS011;27351;45.992;12.666;2023-03-14T04:50:12;12.52;;;7.57;;
41661;SDS011;27351;45.992;12.666;2023-03-14T04:52:37;12.00;;;6.90;;
41661;SDS011;27351;45.992;12.666;2023-03-14T04:55:04;11.33;;;6.93;;
41661;SDS011;27351;45.992;12.666;2023-03-14T04:57:29;14.30;;;7.10;;
41661;SDS011;27351;45.992;12.666;2023-03-14T04:59:55;14.27;;;8.00;;
41661;SDS011;27351;45.992;12.666;2023-03-14T05:02:41;12.30;;;7.00;;
41661;SDS011;27351;45.992;12.666;2023-03-14T05:05:22;14.55;;;7.65;;
41661;SDS011;27351;45.992;12.666;2023-03-14T05:08:09;14.43;;;8.20;;
41661;SDS011;27351;45.992;12.666;2023-03-14T05:10:44;11.05;;;6.90;;
41661;SDS011;27351;45.992;12.666;2023-03-14T05:13:36;15.02;;;7.30;;
41661;SDS011;27351;45.992;12.666;2023-03-14T05:16:16;12.45;;;7.25;;
41661;SDS011;27351;45.992;12.666;2023-03-14T05:19:08;16.45;;;7.53;;
41661;SDS011;27351;45.992;12.666;2023-03-14T05:21:43;14.65;;;7.97;;
41661;SDS011;27351;45.992;12.666;2023-03-14T05:24:47;15.57;;;7.20;;
41661;SDS011;27351;45.992;12.666;2023-03-14T05:27:39;15.35;;;8.40;;
41661;SDS011;27351;45.992;12.666;2023-03-14T05:30:31;17.00;;;8.07;;
41661;SDS011;27351;45.992;12.666;2023-03-14T05:33:06;14.70;;;8.00;;
41661;SDS011;27351;45.992;12.666;2023-03-14T05:35:41;16.00;;;7.60;;
41661;SDS011;27351;45.992;12.666;2023-03-14T05:38:27;15.25;;;8.13;;
41661;SDS011;27351;45.992;12.666;2023-03-14T05:41:28;12.82;;;7.72;;
41661;SDS011;27351;45.992;12.666;2023-03-14T05:44:03;13.40;;;7.45;;
41661;SDS011;27351;45.992;12.666;2023-03-14T05:46:55;15.70;;;7.45;;
41661;SDS011;27351;45.992;12.666;2023-03-14T05:49:43;15.82;;;7.50;;
41661;SDS011;27351;45.992;12.666;2023-03-14T05:52:09;16.25;;;7.22;;
41661;SDS011;27351;45.992;12.666;2023-03-14T05:55:10;12.65;;;7.25;;
41661;SDS011;27351;45.992;12.666;2023-03-14T05:57:50;13.05;;;6.57;;
41661;SDS011;27351;45.992;12.666;2023-03-14T06:00:39;12.68;;;6.50;;
41661;SDS011;27351;45.992;12.666;2023-03-14T06:03:17;11.35;;;5.80;;
41661;SDS011;27351;45.992;12.666;2023-03-14T06:05:46;10.25;;;6.00;;
41661;SDS011;27351;45.992;12.666;2023-03-14T06:08:11;11.90;;;5.77;;
41661;SDS011;27351;45.992;12.666;2023-03-14T06:10:38;8.60;;;5.22;;
41661;SDS011;27351;45.992;12.666;2023-03-14T06:13:03;11.43;;;5.90;;
41661;SDS011;27351;45.992;12.666;2023-03-14T06:15:31;9.52;;;5.40;;
41661;SDS011;27351;45.992;12.666;2023-03-14T06:17:58;9.57;;;5.55;;
41661;SDS011;27351;45.992;12.666;2023-03-14T06:20:25;11.20;;;5.72;;
41661;SDS011;27351;45.992;12.666;2023-03-14T06:22:52;10.60;;;5.45;;
41661;SDS011;27351;45.992;12.666;2023-03-14T06:25:18;9.98;;;5.35;;
41661;SDS011;27351;45.992;12.666;2023-03-14T06:27:46;9.63;;;5.45;;
41661;SDS011;27351;45.992;12.666;2023-03-14T06:30:11;11.23;;;5.78;;
41661;SDS011;27351;45.992;12.666;2023-03-14T06:32:38;10.25;;;5.93;;
41661;SDS011;27351;45.992;12.666;2023-03-14T06:35:08;11.43;;;6.65;;
41661;SDS011;27351;45.992;12.666;2023-03-14T06:37:37;11.68;;;6.45;;
41661;SDS011;27351;45.992;12.666;2023-03-14T06:40:04;13.88;;;7.35;;
41661;SDS011;27351;45.992;12.666;2023-03-14T06:42:49;10.75;;;6.93;;
41661;SDS011;27351;45.992;12.666;2023-03-14T06:45:16;11.75;;;7.10;;
41661;SDS011;27351;45.992;12.666;2023-03-14T06:47:42;11.55;;;7.13;;
41661;SDS011;27351;45.992;12.666;2023-03-14T06:50:09;11.93;;;6.80;;
41661;SDS011;27351;45.992;12.666;2023-03-14T06:52:36;12.63;;;7.30;;
41661;SDS011;27351;45.992;12.666;2023-03-14T06:55:02;12.80;;;7.35;;
41661;SDS011;27351;45.992;12.666;2023-03-14T06:57:28;15.27;;;7.30;;
41661;SDS011;27351;45.992;12.666;2023-03-14T06:59:54;15.43;;;8.07;;
41661;SDS011;27351;45.992;12.666;2023-03-14T07:02:20;15.80;;;8.13;;
41661;SDS011;27351;45.992;12.666;2023-03-14T07:04:48;16.00;;;8.98;;
41661;SDS011;27351;45.992;12.666;2023-03-14T07:07:15;19.33;;;8.65;;
41661;SDS011;27351;45.992;12.666;2023-03-14T07:09:41;16.92;;;8.50;;
41661;SDS011;27351;45.992;12.666;2023-03-14T07:12:07;20.55;;;8.68;;
41661;SDS011;27351;45.992;12.666;2023-03-14T07:14:32;18.83;;;8.20;;
41661;SDS011;27351;45.992;12.666;2023-03-14T07:16:59;19.35;;;8.10;;
41661;SDS011;27351;45.992;12.666;2023-03-14T07:19:24;23.35;;;8.77;;
41661;SDS011;27351;45.992;12.666;2023-03-14T07:21:50;16.73;;;8.35;;
41661;SDS011;27351;45.992;12.666;2023-03-14T07:24:21;18.75;;;8.75;;
41661;SDS011;27351;45.992;12.666;2023-03-14T07:26:47;17.20;;;7.95;;
41661;SDS011;27351;45.992;12.666;2023-03-14T07:29:13;14.50;;;7.80;;
41661;SDS011;27351;45.992;12.666;2023-03-14T07:31:39;17.42;;;8.25;;
41661;SDS011;27351;45.992;12.666;2023-03-14T07:34:05;15.37;;;8.40;;
41661;SDS011;27351;45.992;12.666;2023-03-14T07:36:37;14.80;;;7.78;;
41661;SDS011;27351;45.992;12.666;2023-03-14T07:39:04;14.30;;;7.90;;
41661;SDS011;27351;45.992;12.666;2023-03-14T07:41:52;15.75;;;7.95;;
41661;SDS011;27351;45.992;12.666;2023-03-14T07:44:38;15.23;;;7.20;;
41661;SDS011;27351;45.992;12.666;2023-03-14T07:47:04;17.17;;;8.17;;
41661;SDS011;27351;45.992;12.666;2023-03-14T07:49:29;14.65;;;8.38;;
41661;SDS011;27351;45.992;12.666;2023-03-14T07:51:55;17.73;;;7.40;;
41661;SDS011;27351;45.992;12.666;2023-03-14T07:54:20;14.30;;;6.87;;
41661;SDS011;27351;45.992;12.666;2023-03-14T07:56:46;15.53;;;6.90;;
41661;SDS011;27351;45.992;12.666;2023-03-14T07:59:11;20.77;;;7.47;;
41661;SDS011;27351;45.992;12.666;2023-03-14T08:01:38;16.30;;;7.25;;
41661;SDS011;27351;45.992;12.666;2023-03-14T08:04:03;16.45;;;7.20;;
41661;SDS011;27351;45.992;12.666;2023-03-14T08:06:29;16.30;;;6.32;;
41661;SDS011;27351;45.992;12.666;2023-03-14T08:08:55;15.32;;;6.80;;
41661;SDS011;27351;45.992;12.666;2023-03-14T08:11:20;15.33;;;6.30;;
41661;SDS011;27351;45.992;12.666;2023-03-14T08:13:46;14.35;;;6.45;;
41661;SDS011;27351;45.992;12.666;2023-03-14T08:16:15;15.15;;;6.10;;
41661;SDS011;27351;45.992;12.666;2023-03-14T08:18:42;12.25;;;6.30;;
41661;SDS011;27351;45.992;12.666;2023-03-14T08:21:07;15.00;;;6.50;;
41661;SDS011;27351;45.992;12.666;2023-03-14T08:23:32;17.80;;;6.90;;
41661;SDS011;27351;45.992;12.666;2023-03-14T08:25:58;15.90;;;6.20;;
41661;SDS011;27351;45.992;12.666;2023-03-14T08:28:24;12.73;;;5.50;;
41661;SDS011;27351;45.992;12.666;2023-03-14T08:30:50;14.57;;;5.68;;
41661;SDS011;27351;45.992;12.666;2023-03-14T08:33:15;15.20;;;6.20;;
41661;SDS011;27351;45.992;12.666;2023-03-14T08:35:41;15.52;;;6.00;;
41661;SDS011;27351;45.992;12.666;2023-03-14T08:40:56;16.20;;;5.32;;
41661;SDS011;27351;45.992;12.666;2023-03-14T08:43:27;13.43;;;5.57;;
41661;SDS011;27351;45.992;12.666;2023-03-14T08:45:53;15.30;;;5.37;;
41661;SDS011;27351;45.992;12.666;2023-03-14T08:48:18;16.10;;;5.67;;
41661;SDS011;27351;45.992;12.666;2023-03-14T08:50:45;13.95;;;4.97;;
41661;SDS011;27351;45.992;12.666;2023-03-14T08:53:10;14.65;;;5.25;;
41661;SDS011;27351;45.992;12.666;2023-03-14T08:55:36;16.77;;;5.85;;
41661;SDS011;27351;45.992;12.666;2023-03-14T08:58:01;15.73;;;5.32;;
41661;SDS011;27351;45.992;12.666;2023-03-14T09:00:27;19.42;;;6.10;;
41661;SDS011;27351;45.992;12.666;2023-03-14T09:02:53;18.83;;;6.03;;
41661;SDS011;27351;45.992;12.666;2023-03-14T09:05:19;16.53;;;6.07;;
41661;SDS011;27351;45.992;12.666;2023-03-14T09:07:44;13.00;;;5.43;;
41661;SDS011;27351;45.992;12.666;2023-03-14T09:10:10;20.33;;;6.32;;
41661;SDS011;27351;45.992;12.666;2023-03-14T09:12:36;16.90;;;6.25;;
41661;SDS011;27351;45.992;12.666;2023-03-14T09:15:01;16.33;;;5.90;;
41661;SDS011;27351;45.992;12.666;2023-03-14T09:17:27;20.30;;;6.43;;
41661;SDS011;27351;45.992;12.666;2023-03-14T09:19:53;20.33;;;6.63;;
41661;SDS011;27351;45.992;12.666;2023-03-14T09:22:18;17.70;;;5.87;;
41661;SDS011;27351;45.992;12.666;2023-03-14T09:24:44;18.73;;;6.13;;
41661;SDS011;27351;45.992;12.666;2023-03-14T09:27:09;21.50;;;6.97;;
41661;SDS011;27351;45.992;12.666;2023-03-14T09:29:35;18.08;;;7.18;;
41661;SDS011;27351;45.992;12.666;2023-03-14T09:32:00;18.00;;;6.57;;
41661;SDS011;27351;45.992;12.666;2023-03-14T09:34:26;21.77;;;6.57;;
41661;SDS011;27351;45.992;12.666;2023-03-14T09:36:51;23.63;;;5.40;;
41661;SDS011;27351;45.992;12.666;2023-03-14T09:39:19;19.93;;;5.37;;
41661;SDS011;27351;45.992;12.666;2023-03-14T09:41:46;20.57;;;5.10;;
41661;SDS011;27351;45.992;12.666;2023-03-14T09:44:35;14.48;;;4.63;;
41661;SDS011;27351;45.992;12.666;2023-03-14T09:47:06;15.57;;;4.90;;
41661;SDS011;27351;45.992;12.666;2023-03-14T09:51:59;16.03;;;4.50;;
41661;SDS011;27351;45.992;12.666;2023-03-14T09:54:47;18.30;;;5.53;;
41661;SDS011;27351;45.992;12.666;2023-03-14T09:57:11;19.85;;;5.68;;
41661;SDS011;27351;45.992;12.666;2023-03-14T09:59:37;18.77;;;5.57;;
41661;SDS011;27351;45.992;12.666;2023-03-14T10:02:17;22.30;;;5.80;;
41661;SDS011;27351;45.992;12.666;2023-03-14T10:04:44;21.83;;;5.10;;
41661;SDS011;27351;45.992;12.666;2023-03-14T10:07:13;16.52;;;4.63;;
41661;SDS011;27351;45.992;12.666;2023-03-14T10:09:40;19.42;;;5.30;;
41661;SDS011;27351;45.992;12.666;2023-03-14T10:12:07;18.67;;;5.33;;
41661;SDS011;27351;45.992;12.666;2023-03-14T10:14:34;18.15;;;5.38;;
41661;SDS011;27351;45.992;12.666;2023-03-14T10:17:07;17.70;;;6.13;;
41661;SDS011;27351;45.992;12.666;2023-03-14T10:19:33;18.30;;;5.28;;
41661;SDS011;27351;45.992;12.666;2023-03-14T10:22:01;20.60;;;5.00;;
41661;SDS011;27351;45.992;12.666;2023-03-14T10:24:31;15.20;;;5.35;;
41661;SDS011;27351;45.992;12.666;2023-03-14T10:27:02;19.02;;;5.68;;
41661;SDS011;27351;45.992;12.666;2023-03-14T10:29:34;18.70;;;5.03;;
41661;SDS011;27351;45.992;12.666;2023-03-14T10:34:30;16.90;;;5.00;;
41661;SDS011;27351;45.992;12.666;2023-03-14T10:36:57;17.02;;;4.63;;
41661;SDS011;27351;45.992;12.666;2023-03-14T10:39:28;16.58;;;5.25;;
41661;SDS011;27351;45.992;12.666;2023-03-14T10:42:01;18.67;;;5.47;;
41661;SDS011;27351;45.992;12.666;2023-03-14T10:44:28;15.65;;;4.40;;
41661;SDS011;27351;45.992;12.666;2023-03-14T10:46:55;20.35;;;5.15;;
41661;SDS011;27351;45.992;12.666;2023-03-14T10:49:29;19.92;;;5.07;;
41661;SDS011;27351;45.992;12.666;2023-03-14T10:51:54;18.73;;;5.70;;
41661;SDS011;27351;45.992;12.666;2023-03-14T10:54:21;18.57;;;5.30;;
41661;SDS011;27351;45.992;12.666;2023-03-14T10:56:55;18.08;;;4.97;;
41661;SDS011;27351;45.992;12.666;2023-03-14T10:59:21;19.45;;;6.10;;
41661;SDS011;27351;45.992;12.666;2023-03-14T11:12:45;17.70;;;5.97;;
41661;SDS011;27351;45.992;12.666;2023-03-14T11:17:43;20.77;;;6.20;;
41661;SDS011;27351;45.992;12.666;2023-03-14T11:27:55;20.17;;;6.53;;
41661;SDS011;27351;45.992;12.666;2023-03-14T11:33:04;16.70;;;6.93;;
41661;SDS011;27351;45.992;12.666;2023-03-14T11:38:07;17.88;;;5.85;;
41661;SDS011;27351;45.992;12.666;2023-03-14T11:40:35;17.80;;;6.07;;
41661;SDS011;27351;45.992;12.666;2023-03-14T11:43:11;18.52;;;5.05;;
41661;SDS011;27351;45.992;12.666;2023-03-14T11:45:39;16.95;;;5.10;;
41661;SDS011;27351;45.992;12.666;2023-03-14T11:50:52;18.90;;;5.03;;
41661;SDS011;27351;45.992;12.666;2023-03-14T11:53:39;16.13;;;5.00;;
41661;SDS011;27351;45.992;12.666;2023-03-14T11:56:11;14.45;;;4.72;;
41661;SDS011;27351;45.992;12.666;2023-03-14T11:58:39;16.95;;;5.47;;
41661;SDS011;27351;45.992;12.666;2023-03-14T12:01:10;16.63;;;4.50;;
41661;SDS011;27351;45.992;12.666;2023-03-14T12:03:42;13.68;;;4.72;;
41661;SDS011;27351;45.992;12.666;2023-03-14T12:06:28;15.65;;;5.03;;
41661;SDS011;27351;45.992;12.666;2023-03-14T12:09:03;14.27;;;4.63;;
41661;SDS011;27351;45.992;12.666;2023-03-14T12:13:54;17.05;;;5.97;;
41661;SDS011;27351;45.992;12.666;2023-03-14T12:18:49;19.90;;;5.78;;
41661;SDS011;27351;45.992;12.666;2023-03-14T12:21:15;19.20;;;6.03;;
41661;SDS011;27351;45.992;12.666;2023-03-14T12:23:53;13.93;;;4.60;;
41661;SDS011;27351;45.992;12.666;2023-03-14T12:26:21;13.88;;;4.57;;
41661;SDS011;27351;45.992;12.666;2023-03-14T12:34:10;11.43;;;4.65;;
41661;SDS011;27351;45.992;12.666;2023-03-14T12:42:21;16.48;;;5.03;;
41661;SDS011;27351;45.992;12.666;2023-03-14T12:48:18;16.92;;;4.82;;
41661;SDS011;27351;45.992;12.666;2023-03-14T13:01:14;12.95;;;4.90;;
41661;SDS011;27351;45.992;12.666;2023-03-14T13:03:48;14.93;;;4.40;;
41661;SDS011;27351;45.992;12.666;2023-03-14T13:07:01;12.57;;;4.43;;
41661;SDS011;27351;45.992;12.666;2023-03-14T13:09:34;12.63;;;4.25;;
41661;SDS011;27351;45.992;12.666;2023-03-14T13:11:46;13.18;;;4.68;;
41661;SDS011;27351;45.992;12.666;2023-03-14T13:14:12;15.05;;;4.82;;
41661;SDS011;27351;45.992;12.666;2023-03-14T13:16:39;15.50;;;4.68;;
41661;SDS011;27351;45.992;12.666;2023-03-14T13:19:26;11.93;;;4.63;;
41661;SDS011;27351;45.992;12.666;2023-03-14T13:21:50;13.68;;;5.15;;
41661;SDS011;27351;45.992;12.666;2023-03-14T13:24:34;15.27;;;5.32;;
41661;SDS011;27351;45.992;12.666;2023-03-14T13:27:00;17.70;;;5.45;;
41661;SDS011;27351;45.992;12.666;2023-03-14T13:29:32;16.50;;;4.95;;
41661;SDS011;27351;45.992;12.666;2023-03-14T13:31:59;15.52;;;4.78;;
41661;SDS011;27351;45.992;12.666;2023-03-14T13:34:26;14.02;;;4.60;;
41661;SDS011;27351;45.992;12.666;2023-03-14T13:36:53;16.83;;;5.55;;
41661;SDS011;27351;45.992;12.666;2023-03-14T13:39:20;12.83;;;4.23;;
41661;SDS011;27351;45.992;12.666;2023-03-14T13:41:50;14.68;;;4.65;;
41661;SDS011;27351;45.992;12.666;2023-03-14T13:44:17;13.70;;;4.10;;
41661;SDS011;27351;45.992;12.666;2023-03-14T13:46:44;16.02;;;4.60;;
41661;SDS011;27351;45.992;12.666;2023-03-14T13:49:11;13.93;;;4.75;;
41661;SDS011;27351;45.992;12.666;2023-03-14T13:51:38;13.05;;;4.55;;
41661;SDS011;27351;45.992;12.666;2023-03-14T13:54:12;13.73;;;4.50;;
41661;SDS011;27351;45.992;12.666;2023-03-14T13:56:38;13.30;;;4.45;;
41661;SDS011;27351;45.992;12.666;2023-03-14T13:59:04;12.93;;;4.83;;
41661;SDS011;27351;45.992;12.666;2023-03-14T14:01:32;12.02;;;4.25;;
41661;SDS011;27351;45.992;12.666;2023-03-14T14:04:06;13.10;;;5.28;;
41661;SDS011;27351;45.992;12.666;2023-03-14T14:06:34;14.15;;;5.15;;
41661;SDS011;27351;45.992;12.666;2023-03-14T14:09:02;15.57;;;5.40;;
41661;SDS011;27351;45.992;12.666;2023-03-14T14:11:42;13.23;;;5.32;;
41661;SDS011;27351;45.992;12.666;2023-03-14T14:14:13;13.05;;;5.28;;
41661;SDS011;27351;45.992;12.666;2023-03-14T14:16:43;16.00;;;5.55;;
41661;SDS011;27351;45.992;12.666;2023-03-14T14:19:09;16.45;;;5.28;;
41661;SDS011;27351;45.992;12.666;2023-03-14T14:21:34;12.88;;;4.53;;
41661;SDS011;27351;45.992;12.666;2023-03-14T14:24:00;13.80;;;4.28;;
41661;SDS011;27351;45.992;12.666;2023-03-14T14:26:26;13.82;;;3.97;;
41661;SDS011;27351;45.992;12.666;2023-03-14T14:29:02;14.38;;;3.85;;
41661;SDS011;27351;45.992;12.666;2023-03-14T14:31:28;14.68;;;4.07;;
41661;SDS011;27351;45.992;12.666;2023-03-14T14:33:57;10.43;;;3.47;;
41661;SDS011;27351;45.992;12.666;2023-03-14T14:38:50;12.90;;;3.45;;
41661;SDS011;27351;45.992;12.666;2023-03-14T14:41:15;10.60;;;4.15;;
41661;SDS011;27351;45.992;12.666;2023-03-14T14:43:41;14.48;;;4.20;;
41661;SDS011;27351;45.992;12.666;2023-03-14T14:46:07;12.05;;;4.03;;
41661;SDS011;27351;45.992;12.666;2023-03-14T14:48:35;13.30;;;4.20;;
41661;SDS011;27351;45.992;12.666;2023-03-14T14:51:03;10.95;;;3.53;;
41661;SDS011;27351;45.992;12.666;2023-03-14T14:53:31;9.73;;;3.57;;
41661;SDS011;27351;45.992;12.666;2023-03-14T14:56:03;11.63;;;3.67;;
41661;SDS011;27351;45.992;12.666;2023-03-14T14:58:33;10.45;;;3.42;;
41661;SDS011;27351;45.992;12.666;2023-03-14T15:01:03;10.63;;;3.50;;
41661;SDS011;27351;45.992;12.666;2023-03-14T15:03:30;10.55;;;3.95;;
41661;SDS011;27351;45.992;12.666;2023-03-14T15:05:56;12.82;;;4.60;;
41661;SDS011;27351;45.992;12.666;2023-03-14T15:08:22;12.88;;;3.88;;
41661;SDS011;27351;45.992;12.666;2023-03-14T15:10:48;10.13;;;3.53;;
41661;SDS011;27351;45.992;12.666;2023-03-14T15:13:14;10.57;;;3.78;;
41661;SDS011;27351;45.992;12.666;2023-03-14T15:15:40;12.33;;;3.87;;
41661;SDS011;27351;45.992;12.666;2023-03-14T15:18:13;11.05;;;3.95;;
41661;SDS011;27351;45.992;12.666;2023-03-14T15:20:40;10.32;;;3.72;;
41661;SDS011;27351;45.992;12.666;2023-03-14T15:23:13;10.30;;;3.65;;
41661;SDS011;27351;45.992;12.666;2023-03-14T15:25:39;9.97;;;3.33;;
41661;SDS011;27351;45.992;12.666;2023-03-14T15:28:13;10.30;;;3.22;;
41661;SDS011;27351;45.992;12.666;2023-03-14T15:30:40;10.82;;;3.28;;
41661;SDS011;27351;45.992;12.666;2023-03-14T15:33:05;11.05;;;3.55;;
41661;SDS011;27351;45.992;12.666;2023-03-14T15:35:37;11.80;;;3.50;;
41661;SDS011;27351;45.992;12.666;2023-03-14T15:38:02;12.75;;;3.65;;
41661;SDS011;27351;45.992;12.666;2023-03-14T15:40:28;8.93;;;3.05;;
41661;SDS011;27351;45.992;12.666;2023-03-14T15:42:54;7.65;;;3.28;;
41661;SDS011;27351;45.992;12.666;2023-03-14T15:45:19;10.13;;;3.20;;
41661;SDS011;27351;45.992;12.666;2023-03-14T15:47:45;9.45;;;3.25;;
41661;SDS011;27351;45.992;12.666;2023-03-14T15:50:11;8.48;;;3.15;;